sensor_id;sensor_type;location;lat;lon;timestamp;P1;durP1;ratioP1;P2;durP2;ratioP2
5460;SDS011;2753;49.196;8.286;2023-08-08T00:02:19;1.93;;;1.83;;
5460;SDS011;2753;49.196;8.286;2023-08-08T00:04:45;2.07;;;1.57;;
5460;SDS011;2753;49.196;8.286;2023-08-08T00:07:10;2.30;;;1.30;;
5460;SDS011;2753;49.196;8.286;2023-08-08T00:09:37;2.80;;;1.40;;
5460;SDS011;2753;49.196;8.286;2023-08-08T00:12:02;4.03;;;1.20;;
5460;SDS011;2753;49.196;8.286;2023-08-08T00:14:29;11.80;;;1.40;;
5460;SDS011;2753;49.196;8.286;2023-08-08T00:16:54;2.83;;;1.60;;
5460;SDS011;2753;49.196;8.286;2023-08-08T00:19:20;3.33;;;1.60;;
5460;SDS011;2753;49.196;8.286;2023-08-08T00:21:46;7.23;;;1.80;;
5460;SDS011;2753;49.196;8.286;2023-08-08T00:24:11;1.70;;;1.60;;
5460;SDS011;2753;49.196;8.286;2023-08-08T00:26:37;2.03;;;1.83;;
5460;SDS011;2753;49.196;8.286;2023-08-08T00:29:02;4.53;;;1.83;;
5460;SDS011;2753;49.196;8.286;2023-08-08T00:31:28;4.57;;;1.83;;
5460;SDS011;2753;49.196;8.286;2023-08-08T00:33:54;2.67;;;1.50;;
5460;SDS011;2753;49.196;8.286;2023-08-08T00:36:19;2.60;;;1.60;;
5460;SDS011;2753;49.196;8.286;2023-08-08T00:38:45;3.17;;;1.93;;
5460;SDS011;2753;49.196;8.286;2023-08-08T00:41:11;2.20;;;1.40;;
5460;SDS011;2753;49.196;8.286;2023-08-08T00:43:36;5.03;;;1.93;;
5460;SDS011;2753;49.196;8.286;2023-08-08T00:46:02;4.23;;;1.40;;
5460;SDS011;2753;49.196;8.286;2023-08-08T00:48:28;3.83;;;1.50;;
5460;SDS011;2753;49.196;8.286;2023-08-08T00:50:54;3.90;;;2.00;;
5460;SDS011;2753;49.196;8.286;2023-08-08T00:53:19;4.10;;;1.90;;
5460;SDS011;2753;49.196;8.286;2023-08-08T00:55:47;1.83;;;1.73;;
5460;SDS011;2753;49.196;8.286;2023-08-08T00:58:13;5.97;;;1.60;;
5460;SDS011;2753;49.196;8.286;2023-08-08T01:00:40;1.83;;;1.70;;
5460;SDS011;2753;49.196;8.286;2023-08-08T01:03:07;5.27;;;1.50;;
5460;SDS011;2753;49.196;8.286;2023-08-08T01:05:43;1.87;;;1.77;;
5460;SDS011;2753;49.196;8.286;2023-08-08T01:08:16;2.10;;;1.60;;
5460;SDS011;2753;49.196;8.286;2023-08-08T01:10:47;1.67;;;1.57;;
5460;SDS011;2753;49.196;8.286;2023-08-08T01:13:18;1.50;;;1.40;;
5460;SDS011;2753;49.196;8.286;2023-08-08T01:15:47;3.53;;;1.53;;
5460;SDS011;2753;49.196;8.286;2023-08-08T01:18:14;1.67;;;1.57;;
5460;SDS011;2753;49.196;8.286;2023-08-08T01:20:41;6.80;;;1.90;;
5460;SDS011;2753;49.196;8.286;2023-08-08T01:23:23;1.83;;;1.73;;
5460;SDS011;2753;49.196;8.286;2023-08-08T01:25:56;2.70;;;1.87;;
5460;SDS011;2753;49.196;8.286;2023-08-08T01:28:23;4.27;;;2.43;;
5460;SDS011;2753;49.196;8.286;2023-08-08T01:30:49;6.07;;;1.53;;
5460;SDS011;2753;49.196;8.286;2023-08-08T01:33:16;1.63;;;1.50;;
5460;SDS011;2753;49.196;8.286;2023-08-08T01:35:43;11.00;;;2.50;;
5460;SDS011;2753;49.196;8.286;2023-08-08T01:38:14;4.50;;;1.97;;
5460;SDS011;2753;49.196;8.286;2023-08-08T01:40:45;2.70;;;1.90;;
5460;SDS011;2753;49.196;8.286;2023-08-08T01:43:12;4.13;;;1.80;;
5460;SDS011;2753;49.196;8.286;2023-08-08T01:45:39;5.13;;;2.30;;
5460;SDS011;2753;49.196;8.286;2023-08-08T01:48:07;3.27;;;1.90;;
5460;SDS011;2753;49.196;8.286;2023-08-08T01:50:33;5.63;;;2.00;;
5460;SDS011;2753;49.196;8.286;2023-08-08T01:52:59;9.20;;;1.50;;
5460;SDS011;2753;49.196;8.286;2023-08-08T01:55:25;1.87;;;1.77;;
5460;SDS011;2753;49.196;8.286;2023-08-08T01:57:50;2.00;;;1.90;;
5460;SDS011;2753;49.196;8.286;2023-08-08T02:00:16;1.80;;;1.70;;
5460;SDS011;2753;49.196;8.286;2023-08-08T02:02:42;3.63;;;2.00;;
5460;SDS011;2753;49.196;8.286;2023-08-08T02:05:08;2.00;;;1.80;;
5460;SDS011;2753;49.196;8.286;2023-08-08T02:07:33;4.10;;;2.30;;
5460;SDS011;2753;49.196;8.286;2023-08-08T02:09:59;2.07;;;1.97;;
5460;SDS011;2753;49.196;8.286;2023-08-08T02:12:25;4.97;;;1.60;;
5460;SDS011;2753;49.196;8.286;2023-08-08T02:14:50;2.37;;;2.17;;
5460;SDS011;2753;49.196;8.286;2023-08-08T02:17:16;3.27;;;2.43;;
5460;SDS011;2753;49.196;8.286;2023-08-08T02:19:42;2.90;;;2.20;;
5460;SDS011;2753;49.196;8.286;2023-08-08T02:22:08;4.43;;;1.83;;
5460;SDS011;2753;49.196;8.286;2023-08-08T02:24:34;3.57;;;1.97;;
5460;SDS011;2753;49.196;8.286;2023-08-08T02:27:00;2.27;;;1.90;;
5460;SDS011;2753;49.196;8.286;2023-08-08T02:29:25;4.20;;;1.80;;
5460;SDS011;2753;49.196;8.286;2023-08-08T02:31:52;5.00;;;2.00;;
5460;SDS011;2753;49.196;8.286;2023-08-08T02:34:18;5.13;;;1.90;;
5460;SDS011;2753;49.196;8.286;2023-08-08T02:36:43;5.80;;;2.27;;
5460;SDS011;2753;49.196;8.286;2023-08-08T02:39:09;3.20;;;2.20;;
5460;SDS011;2753;49.196;8.286;2023-08-08T02:41:37;2.40;;;2.30;;
5460;SDS011;2753;49.196;8.286;2023-08-08T02:44:02;7.03;;;1.97;;
5460;SDS011;2753;49.196;8.286;2023-08-08T02:46:28;3.03;;;1.93;;
5460;SDS011;2753;49.196;8.286;2023-08-08T02:48:54;3.30;;;1.90;;
5460;SDS011;2753;49.196;8.286;2023-08-08T02:51:19;2.30;;;2.13;;
5460;SDS011;2753;49.196;8.286;2023-08-08T02:53:45;5.17;;;2.33;;
5460;SDS011;2753;49.196;8.286;2023-08-08T02:56:11;1.47;;;1.37;;
5460;SDS011;2753;49.196;8.286;2023-08-08T02:58:36;2.00;;;1.90;;
5460;SDS011;2753;49.196;8.286;2023-08-08T03:01:02;7.77;;;2.30;;
5460;SDS011;2753;49.196;8.286;2023-08-08T03:03:28;2.00;;;1.70;;
5460;SDS011;2753;49.196;8.286;2023-08-08T03:05:53;2.13;;;1.70;;
5460;SDS011;2753;49.196;8.286;2023-08-08T03:08:19;1.77;;;1.67;;
5460;SDS011;2753;49.196;8.286;2023-08-08T03:10:44;9.03;;;1.63;;
5460;SDS011;2753;49.196;8.286;2023-08-08T03:13:10;2.90;;;1.70;;
5460;SDS011;2753;49.196;8.286;2023-08-08T03:15:36;4.20;;;2.30;;
5460;SDS011;2753;49.196;8.286;2023-08-08T03:18:02;2.63;;;1.93;;
5460;SDS011;2753;49.196;8.286;2023-08-08T03:20:28;6.80;;;1.97;;
5460;SDS011;2753;49.196;8.286;2023-08-08T03:22:54;7.43;;;2.03;;
5460;SDS011;2753;49.196;8.286;2023-08-08T03:25:19;6.63;;;2.57;;
5460;SDS011;2753;49.196;8.286;2023-08-08T03:27:45;4.40;;;1.93;;
5460;SDS011;2753;49.196;8.286;2023-08-08T03:30:11;3.67;;;1.70;;
5460;SDS011;2753;49.196;8.286;2023-08-08T03:32:37;6.67;;;1.97;;
5460;SDS011;2753;49.196;8.286;2023-08-08T03:35:04;8.23;;;2.33;;
5460;SDS011;2753;49.196;8.286;2023-08-08T03:37:30;5.13;;;2.40;;
5460;SDS011;2753;49.196;8.286;2023-08-08T03:39:55;1.97;;;1.83;;
5460;SDS011;2753;49.196;8.286;2023-08-08T03:42:21;9.83;;;1.70;;
5460;SDS011;2753;49.196;8.286;2023-08-08T03:44:46;7.97;;;2.33;;
5460;SDS011;2753;49.196;8.286;2023-08-08T03:47:12;3.13;;;1.77;;
5460;SDS011;2753;49.196;8.286;2023-08-08T03:49:38;11.47;;;2.50;;
5460;SDS011;2753;49.196;8.286;2023-08-08T03:52:03;2.30;;;2.10;;
5460;SDS011;2753;49.196;8.286;2023-08-08T03:54:30;2.67;;;2.33;;
5460;SDS011;2753;49.196;8.286;2023-08-08T03:56:55;3.07;;;2.30;;
5460;SDS011;2753;49.196;8.286;2023-08-08T03:59:21;2.97;;;1.80;;
5460;SDS011;2753;49.196;8.286;2023-08-08T04:01:47;2.60;;;1.80;;
5460;SDS011;2753;49.196;8.286;2023-08-08T04:04:12;3.93;;;2.00;;
5460;SDS011;2753;49.196;8.286;2023-08-08T04:06:38;4.90;;;2.30;;
5460;SDS011;2753;49.196;8.286;2023-08-08T04:09:04;3.17;;;1.87;;
5460;SDS011;2753;49.196;8.286;2023-08-08T04:11:29;3.00;;;2.17;;
5460;SDS011;2753;49.196;8.286;2023-08-08T04:13:55;2.63;;;2.43;;
5460;SDS011;2753;49.196;8.286;2023-08-08T04:16:21;9.50;;;2.20;;
5460;SDS011;2753;49.196;8.286;2023-08-08T04:18:47;2.10;;;1.90;;
5460;SDS011;2753;49.196;8.286;2023-08-08T04:21:12;3.70;;;2.07;;
5460;SDS011;2753;49.196;8.286;2023-08-08T04:23:39;3.90;;;2.27;;
5460;SDS011;2753;49.196;8.286;2023-08-08T04:26:05;5.97;;;2.33;;
5460;SDS011;2753;49.196;8.286;2023-08-08T04:28:30;3.37;;;2.40;;
5460;SDS011;2753;49.196;8.286;2023-08-08T04:30:56;6.70;;;2.97;;
5460;SDS011;2753;49.196;8.286;2023-08-08T04:33:22;6.83;;;3.23;;
5460;SDS011;2753;49.196;8.286;2023-08-08T04:35:48;2.90;;;2.20;;
5460;SDS011;2753;49.196;8.286;2023-08-08T04:38:14;6.50;;;2.47;;
5460;SDS011;2753;49.196;8.286;2023-08-08T04:40:40;3.93;;;2.50;;
5460;SDS011;2753;49.196;8.286;2023-08-08T04:43:06;2.20;;;1.97;;
5460;SDS011;2753;49.196;8.286;2023-08-08T04:45:32;14.73;;;2.10;;
5460;SDS011;2753;49.196;8.286;2023-08-08T04:47:58;2.70;;;2.03;;
5460;SDS011;2753;49.196;8.286;2023-08-08T04:50:24;3.07;;;1.97;;
5460;SDS011;2753;49.196;8.286;2023-08-08T04:52:49;2.33;;;2.13;;
5460;SDS011;2753;49.196;8.286;2023-08-08T04:55:15;3.53;;;2.33;;
5460;SDS011;2753;49.196;8.286;2023-08-08T04:57:41;3.17;;;2.10;;
5460;SDS011;2753;49.196;8.286;2023-08-08T05:00:07;2.00;;;1.90;;
5460;SDS011;2753;49.196;8.286;2023-08-08T05:02:34;5.17;;;2.50;;
5460;SDS011;2753;49.196;8.286;2023-08-08T05:05:01;3.13;;;2.73;;
5460;SDS011;2753;49.196;8.286;2023-08-08T05:07:27;3.80;;;2.13;;
5460;SDS011;2753;49.196;8.286;2023-08-08T05:09:53;5.97;;;2.37;;
5460;SDS011;2753;49.196;8.286;2023-08-08T05:12:18;2.37;;;2.17;;
5460;SDS011;2753;49.196;8.286;2023-08-08T05:14:44;4.50;;;2.53;;
5460;SDS011;2753;49.196;8.286;2023-08-08T05:17:09;3.60;;;2.50;;
5460;SDS011;2753;49.196;8.286;2023-08-08T05:19:35;2.53;;;2.30;;
5460;SDS011;2753;49.196;8.286;2023-08-08T05:22:01;3.47;;;2.33;;
5460;SDS011;2753;49.196;8.286;2023-08-08T05:24:26;4.47;;;2.07;;
5460;SDS011;2753;49.196;8.286;2023-08-08T05:26:52;4.37;;;2.57;;
5460;SDS011;2753;49.196;8.286;2023-08-08T05:29:18;4.93;;;2.50;;
5460;SDS011;2753;49.196;8.286;2023-08-08T05:31:45;2.13;;;1.93;;
5460;SDS011;2753;49.196;8.286;2023-08-08T05:34:12;9.63;;;2.43;;
5460;SDS011;2753;49.196;8.286;2023-08-08T05:36:38;8.97;;;2.50;;
5460;SDS011;2753;49.196;8.286;2023-08-08T05:39:03;7.10;;;2.23;;
5460;SDS011;2753;49.196;8.286;2023-08-08T05:41:29;9.03;;;2.90;;
5460;SDS011;2753;49.196;8.286;2023-08-08T05:43:54;2.83;;;2.07;;
5460;SDS011;2753;49.196;8.286;2023-08-08T05:46:20;2.43;;;2.23;;
5460;SDS011;2753;49.196;8.286;2023-08-08T05:48:46;4.50;;;2.80;;
5460;SDS011;2753;49.196;8.286;2023-08-08T05:51:12;3.07;;;1.93;;
5460;SDS011;2753;49.196;8.286;2023-08-08T05:53:37;2.97;;;2.23;;
5460;SDS011;2753;49.196;8.286;2023-08-08T05:56:03;3.40;;;2.30;;
5460;SDS011;2753;49.196;8.286;2023-08-08T05:58:29;2.53;;;2.43;;
5460;SDS011;2753;49.196;8.286;2023-08-08T06:00:55;2.30;;;2.10;;
5460;SDS011;2753;49.196;8.286;2023-08-08T06:03:20;2.00;;;1.83;;
5460;SDS011;2753;49.196;8.286;2023-08-08T06:05:46;3.33;;;1.83;;
5460;SDS011;2753;49.196;8.286;2023-08-08T06:08:12;6.70;;;2.20;;
5460;SDS011;2753;49.196;8.286;2023-08-08T06:10:39;3.23;;;2.20;;
5460;SDS011;2753;49.196;8.286;2023-08-08T06:13:05;9.80;;;3.57;;
5460;SDS011;2753;49.196;8.286;2023-08-08T06:15:31;2.60;;;1.97;;
5460;SDS011;2753;49.196;8.286;2023-08-08T06:17:57;3.77;;;2.00;;
5460;SDS011;2753;49.196;8.286;2023-08-08T06:20:22;2.63;;;2.03;;
5460;SDS011;2753;49.196;8.286;2023-08-08T06:22:48;2.00;;;1.90;;
5460;SDS011;2753;49.196;8.286;2023-08-08T06:25:14;2.57;;;2.30;;
5460;SDS011;2753;49.196;8.286;2023-08-08T06:27:40;5.40;;;2.50;;
5460;SDS011;2753;49.196;8.286;2023-08-08T06:30:06;5.37;;;1.80;;
5460;SDS011;2753;49.196;8.286;2023-08-08T06:32:33;1.90;;;1.80;;
5460;SDS011;2753;49.196;8.286;2023-08-08T06:34:59;3.70;;;2.17;;
5460;SDS011;2753;49.196;8.286;2023-08-08T06:37:24;6.37;;;2.00;;
5460;SDS011;2753;49.196;8.286;2023-08-08T06:39:50;2.50;;;2.30;;
5460;SDS011;2753;49.196;8.286;2023-08-08T06:42:16;2.80;;;1.87;;
5460;SDS011;2753;49.196;8.286;2023-08-08T06:44:42;2.50;;;1.60;;
5460;SDS011;2753;49.196;8.286;2023-08-08T06:47:09;3.13;;;1.73;;
5460;SDS011;2753;49.196;8.286;2023-08-08T06:49:36;3.23;;;1.57;;
5460;SDS011;2753;49.196;8.286;2023-08-08T06:52:02;2.40;;;1.70;;
5460;SDS011;2753;49.196;8.286;2023-08-08T06:54:28;2.17;;;2.07;;
5460;SDS011;2753;49.196;8.286;2023-08-08T06:56:54;4.37;;;1.83;;
5460;SDS011;2753;49.196;8.286;2023-08-08T06:59:22;4.97;;;1.50;;
5460;SDS011;2753;49.196;8.286;2023-08-08T07:01:48;4.40;;;1.50;;
5460;SDS011;2753;49.196;8.286;2023-08-08T07:04:15;9.80;;;2.27;;
5460;SDS011;2753;49.196;8.286;2023-08-08T07:06:42;2.90;;;1.70;;
5460;SDS011;2753;49.196;8.286;2023-08-08T07:09:08;1.30;;;1.20;;
5460;SDS011;2753;49.196;8.286;2023-08-08T07:11:35;3.53;;;1.57;;
5460;SDS011;2753;49.196;8.286;2023-08-08T07:14:04;3.37;;;1.27;;
5460;SDS011;2753;49.196;8.286;2023-08-08T07:16:30;2.97;;;1.20;;
5460;SDS011;2753;49.196;8.286;2023-08-08T07:18:55;1.73;;;1.63;;
5460;SDS011;2753;49.196;8.286;2023-08-08T07:21:21;1.90;;;1.80;;
5460;SDS011;2753;49.196;8.286;2023-08-08T07:23:47;4.30;;;1.57;;
5460;SDS011;2753;49.196;8.286;2023-08-08T07:26:15;2.70;;;1.27;;
5460;SDS011;2753;49.196;8.286;2023-08-08T07:28:41;2.90;;;1.43;;
5460;SDS011;2753;49.196;8.286;2023-08-08T07:31:06;2.33;;;1.27;;
5460;SDS011;2753;49.196;8.286;2023-08-08T07:33:32;2.97;;;1.50;;
5460;SDS011;2753;49.196;8.286;2023-08-08T07:35:57;5.17;;;1.40;;
5460;SDS011;2753;49.196;8.286;2023-08-08T07:38:23;6.20;;;1.70;;
5460;SDS011;2753;49.196;8.286;2023-08-08T07:40:49;5.60;;;1.53;;
5460;SDS011;2753;49.196;8.286;2023-08-08T07:43:14;5.30;;;1.83;;
5460;SDS011;2753;49.196;8.286;2023-08-08T07:45:40;1.30;;;1.20;;
5460;SDS011;2753;49.196;8.286;2023-08-08T07:48:06;5.43;;;0.87;;
5460;SDS011;2753;49.196;8.286;2023-08-08T07:50:32;1.93;;;1.07;;
5460;SDS011;2753;49.196;8.286;2023-08-08T07:52:58;3.00;;;1.00;;
5460;SDS011;2753;49.196;8.286;2023-08-08T07:55:24;0.83;;;0.83;;
5460;SDS011;2753;49.196;8.286;2023-08-08T07:57:49;2.40;;;1.23;;
5460;SDS011;2753;49.196;8.286;2023-08-08T08:00:15;8.90;;;1.00;;
5460;SDS011;2753;49.196;8.286;2023-08-08T08:02:43;1.30;;;1.13;;
5460;SDS011;2753;49.196;8.286;2023-08-08T08:05:09;3.30;;;1.40;;
5460;SDS011;2753;49.196;8.286;2023-08-08T08:07:36;2.63;;;1.27;;
5460;SDS011;2753;49.196;8.286;2023-08-08T08:10:03;2.60;;;1.37;;
5460;SDS011;2753;49.196;8.286;2023-08-08T08:12:31;3.03;;;1.37;;
5460;SDS011;2753;49.196;8.286;2023-08-08T08:14:57;3.13;;;1.40;;
5460;SDS011;2753;49.196;8.286;2023-08-08T08:17:24;3.43;;;1.30;;
5460;SDS011;2753;49.196;8.286;2023-08-08T08:19:52;4.37;;;1.23;;
5460;SDS011;2753;49.196;8.286;2023-08-08T08:22:18;4.70;;;1.20;;
5460;SDS011;2753;49.196;8.286;2023-08-08T08:24:44;1.10;;;1.00;;
5460;SDS011;2753;49.196;8.286;2023-08-08T08:27:11;2.20;;;1.50;;
5460;SDS011;2753;49.196;8.286;2023-08-08T08:29:36;3.30;;;1.13;;
5460;SDS011;2753;49.196;8.286;2023-08-08T08:32:02;5.57;;;1.30;;
5460;SDS011;2753;49.196;8.286;2023-08-08T08:34:28;1.73;;;1.00;;
5460;SDS011;2753;49.196;8.286;2023-08-08T08:36:55;2.83;;;1.60;;
5460;SDS011;2753;49.196;8.286;2023-08-08T08:39:24;1.67;;;1.53;;
5460;SDS011;2753;49.196;8.286;2023-08-08T08:41:53;6.53;;;1.37;;
5460;SDS011;2753;49.196;8.286;2023-08-08T08:44:26;1.73;;;1.10;;
5460;SDS011;2753;49.196;8.286;2023-08-08T08:46:55;2.20;;;1.17;;
5460;SDS011;2753;49.196;8.286;2023-08-08T08:49:23;3.07;;;1.03;;
5460;SDS011;2753;49.196;8.286;2023-08-08T08:51:50;3.57;;;1.07;;
5460;SDS011;2753;49.196;8.286;2023-08-08T08:54:15;5.40;;;1.00;;
5460;SDS011;2753;49.196;8.286;2023-08-08T08:56:41;1.67;;;1.27;;
5460;SDS011;2753;49.196;8.286;2023-08-08T08:59:08;4.70;;;1.20;;
5460;SDS011;2753;49.196;8.286;2023-08-08T09:01:33;2.30;;;1.20;;
5460;SDS011;2753;49.196;8.286;2023-08-08T09:04:00;1.30;;;1.00;;
5460;SDS011;2753;49.196;8.286;2023-08-08T09:06:29;1.10;;;1.00;;
5460;SDS011;2753;49.196;8.286;2023-08-08T09:08:55;6.60;;;1.10;;
5460;SDS011;2753;49.196;8.286;2023-08-08T09:11:20;3.77;;;1.20;;
5460;SDS011;2753;49.196;8.286;2023-08-08T09:13:46;2.97;;;1.20;;
5460;SDS011;2753;49.196;8.286;2023-08-08T09:16:12;4.80;;;1.20;;
5460;SDS011;2753;49.196;8.286;2023-08-08T09:18:39;1.17;;;0.80;;
5460;SDS011;2753;49.196;8.286;2023-08-08T09:21:07;4.50;;;1.17;;
5460;SDS011;2753;49.196;8.286;2023-08-08T09:23:33;7.60;;;1.40;;
5460;SDS011;2753;49.196;8.286;2023-08-08T09:25:58;2.00;;;1.07;;
5460;SDS011;2753;49.196;8.286;2023-08-08T09:28:24;2.73;;;1.07;;
5460;SDS011;2753;49.196;8.286;2023-08-08T09:30:50;0.93;;;0.87;;
5460;SDS011;2753;49.196;8.286;2023-08-08T09:33:17;3.37;;;1.10;;
5460;SDS011;2753;49.196;8.286;2023-08-08T09:35:43;2.90;;;1.00;;
5460;SDS011;2753;49.196;8.286;2023-08-08T09:38:09;3.33;;;1.10;;
5460;SDS011;2753;49.196;8.286;2023-08-08T09:40:35;1.13;;;1.13;;
5460;SDS011;2753;49.196;8.286;2023-08-08T09:43:01;1.37;;;1.00;;
5460;SDS011;2753;49.196;8.286;2023-08-08T09:45:34;3.60;;;1.00;;
5460;SDS011;2753;49.196;8.286;2023-08-08T09:48:05;2.23;;;1.00;;
5460;SDS011;2753;49.196;8.286;2023-08-08T09:50:32;1.90;;;1.17;;
5460;SDS011;2753;49.196;8.286;2023-08-08T09:52:59;4.00;;;1.30;;
5460;SDS011;2753;49.196;8.286;2023-08-08T09:55:26;4.67;;;1.30;;
5460;SDS011;2753;49.196;8.286;2023-08-08T09:57:54;5.93;;;1.23;;
5460;SDS011;2753;49.196;8.286;2023-08-08T10:00:20;3.03;;;1.10;;
5460;SDS011;2753;49.196;8.286;2023-08-08T10:02:48;3.90;;;1.20;;
5460;SDS011;2753;49.196;8.286;2023-08-08T10:05:14;5.47;;;1.17;;
5460;SDS011;2753;49.196;8.286;2023-08-08T10:07:40;3.20;;;1.10;;
5460;SDS011;2753;49.196;8.286;2023-08-08T10:10:08;3.77;;;1.10;;
5460;SDS011;2753;49.196;8.286;2023-08-08T10:12:38;2.60;;;0.87;;
5460;SDS011;2753;49.196;8.286;2023-08-08T10:15:06;1.10;;;0.80;;
5460;SDS011;2753;49.196;8.286;2023-08-08T10:17:37;1.43;;;1.10;;
5460;SDS011;2753;49.196;8.286;2023-08-08T10:20:04;2.07;;;1.00;;
5460;SDS011;2753;49.196;8.286;2023-08-08T10:22:37;2.90;;;1.43;;
5460;SDS011;2753;49.196;8.286;2023-08-08T10:25:08;1.80;;;1.00;;
5460;SDS011;2753;49.196;8.286;2023-08-08T10:27:34;4.10;;;1.10;;
5460;SDS011;2753;49.196;8.286;2023-08-08T10:30:02;1.20;;;0.87;;
5460;SDS011;2753;49.196;8.286;2023-08-08T10:32:44;3.23;;;0.90;;
5460;SDS011;2753;49.196;8.286;2023-08-08T10:35:15;5.87;;;1.40;;
5460;SDS011;2753;49.196;8.286;2023-08-08T10:37:51;2.77;;;0.97;;
5460;SDS011;2753;49.196;8.286;2023-08-08T10:40:18;3.47;;;1.07;;
5460;SDS011;2753;49.196;8.286;2023-08-08T10:42:45;2.30;;;1.20;;
5460;SDS011;2753;49.196;8.286;2023-08-08T10:45:12;1.10;;;0.77;;
5460;SDS011;2753;49.196;8.286;2023-08-08T10:47:40;1.90;;;1.37;;
5460;SDS011;2753;49.196;8.286;2023-08-08T10:58:02;1.30;;;1.20;;
5460;SDS011;2753;49.196;8.286;2023-08-08T11:00:33;2.50;;;1.10;;
5460;SDS011;2753;49.196;8.286;2023-08-08T11:03:01;2.40;;;0.77;;
5460;SDS011;2753;49.196;8.286;2023-08-08T11:05:30;2.13;;;1.00;;
5460;SDS011;2753;49.196;8.286;2023-08-08T11:07:57;1.33;;;1.17;;
5460;SDS011;2753;49.196;8.286;2023-08-08T11:10:23;1.47;;;1.10;;
5460;SDS011;2753;49.196;8.286;2023-08-08T11:12:59;1.00;;;0.90;;
5460;SDS011;2753;49.196;8.286;2023-08-08T11:15:26;1.63;;;1.40;;
5460;SDS011;2753;49.196;8.286;2023-08-08T11:17:53;1.50;;;1.10;;
5460;SDS011;2753;49.196;8.286;2023-08-08T11:20:21;2.57;;;0.93;;
5460;SDS011;2753;49.196;8.286;2023-08-08T11:22:54;1.53;;;1.13;;
5460;SDS011;2753;49.196;8.286;2023-08-08T11:25:21;1.20;;;1.10;;
5460;SDS011;2753;49.196;8.286;2023-08-08T11:27:53;5.50;;;0.90;;
5460;SDS011;2753;49.196;8.286;2023-08-08T11:30:20;1.00;;;1.00;;
5460;SDS011;2753;49.196;8.286;2023-08-08T11:32:47;1.17;;;1.07;;
5460;SDS011;2753;49.196;8.286;2023-08-08T11:35:17;1.53;;;1.10;;
5460;SDS011;2753;49.196;8.286;2023-08-08T11:37:55;2.10;;;1.00;;
5460;SDS011;2753;49.196;8.286;2023-08-08T11:40:22;3.60;;;1.33;;
5460;SDS011;2753;49.196;8.286;2023-08-08T11:42:50;1.20;;;0.80;;
5460;SDS011;2753;49.196;8.286;2023-08-08T11:45:17;3.20;;;1.10;;
5460;SDS011;2753;49.196;8.286;2023-08-08T11:47:43;2.60;;;0.83;;
5460;SDS011;2753;49.196;8.286;2023-08-08T11:50:09;1.43;;;1.10;;
5460;SDS011;2753;49.196;8.286;2023-08-08T11:52:45;2.47;;;1.40;;
5460;SDS011;2753;49.196;8.286;2023-08-08T11:55:13;5.70;;;1.40;;
5460;SDS011;2753;49.196;8.286;2023-08-08T11:57:39;1.20;;;1.10;;
5460;SDS011;2753;49.196;8.286;2023-08-08T12:00:09;3.80;;;0.73;;
5460;SDS011;2753;49.196;8.286;2023-08-08T12:02:42;1.57;;;1.10;;
5460;SDS011;2753;49.196;8.286;2023-08-08T12:05:09;8.20;;;1.23;;
5460;SDS011;2753;49.196;8.286;2023-08-08T12:07:36;2.87;;;1.00;;
5460;SDS011;2753;49.196;8.286;2023-08-08T12:10:05;1.97;;;1.07;;
5460;SDS011;2753;49.196;8.286;2023-08-08T12:12:37;4.20;;;1.20;;
5460;SDS011;2753;49.196;8.286;2023-08-08T12:15:07;1.90;;;1.00;;
5460;SDS011;2753;49.196;8.286;2023-08-08T12:17:34;2.20;;;1.00;;
5460;SDS011;2753;49.196;8.286;2023-08-08T12:20:04;3.37;;;1.20;;
5460;SDS011;2753;49.196;8.286;2023-08-08T12:22:30;3.67;;;1.23;;
5460;SDS011;2753;49.196;8.286;2023-08-08T12:24:57;2.97;;;1.23;;
5460;SDS011;2753;49.196;8.286;2023-08-08T12:27:22;2.77;;;1.33;;
5460;SDS011;2753;49.196;8.286;2023-08-08T12:29:48;0.90;;;0.90;;
5460;SDS011;2753;49.196;8.286;2023-08-08T12:32:14;1.10;;;1.00;;
5460;SDS011;2753;49.196;8.286;2023-08-08T12:34:40;1.67;;;0.90;;
5460;SDS011;2753;49.196;8.286;2023-08-08T12:37:05;1.10;;;0.90;;
5460;SDS011;2753;49.196;8.286;2023-08-08T12:39:32;2.50;;;1.00;;
5460;SDS011;2753;49.196;8.286;2023-08-08T12:41:59;1.73;;;0.90;;
5460;SDS011;2753;49.196;8.286;2023-08-08T12:44:25;0.80;;;0.80;;
5460;SDS011;2753;49.196;8.286;2023-08-08T12:46:52;4.77;;;0.90;;
5460;SDS011;2753;49.196;8.286;2023-08-08T12:49:17;5.13;;;1.07;;
5460;SDS011;2753;49.196;8.286;2023-08-08T12:51:43;4.43;;;1.00;;
5460;SDS011;2753;49.196;8.286;2023-08-08T12:54:09;1.37;;;0.70;;
5460;SDS011;2753;49.196;8.286;2023-08-08T12:56:34;1.10;;;0.87;;
5460;SDS011;2753;49.196;8.286;2023-08-08T12:59:01;1.33;;;0.93;;
5460;SDS011;2753;49.196;8.286;2023-08-08T13:01:28;1.73;;;0.90;;
5460;SDS011;2753;49.196;8.286;2023-08-08T13:03:53;1.10;;;0.70;;
5460;SDS011;2753;49.196;8.286;2023-08-08T13:06:19;2.70;;;1.57;;
5460;SDS011;2753;49.196;8.286;2023-08-08T13:08:45;0.80;;;0.80;;
5460;SDS011;2753;49.196;8.286;2023-08-08T13:11:11;1.90;;;1.03;;
5460;SDS011;2753;49.196;8.286;2023-08-08T13:13:36;0.93;;;0.80;;
5460;SDS011;2753;49.196;8.286;2023-08-08T13:16:02;5.03;;;0.77;;
5460;SDS011;2753;49.196;8.286;2023-08-08T13:18:28;1.27;;;1.10;;
5460;SDS011;2753;49.196;8.286;2023-08-08T13:20:54;5.60;;;1.00;;
5460;SDS011;2753;49.196;8.286;2023-08-08T13:23:19;1.20;;;0.97;;
5460;SDS011;2753;49.196;8.286;2023-08-08T13:25:45;1.00;;;0.80;;
5460;SDS011;2753;49.196;8.286;2023-08-08T13:28:14;1.10;;;1.00;;
5460;SDS011;2753;49.196;8.286;2023-08-08T13:30:40;1.23;;;0.90;;
5460;SDS011;2753;49.196;8.286;2023-08-08T13:33:07;1.30;;;1.10;;
5460;SDS011;2753;49.196;8.286;2023-08-08T13:35:34;1.03;;;0.80;;
5460;SDS011;2753;49.196;8.286;2023-08-08T13:38:00;1.00;;;0.90;;
5460;SDS011;2753;49.196;8.286;2023-08-08T13:40:26;1.70;;;0.90;;
5460;SDS011;2753;49.196;8.286;2023-08-08T13:42:52;2.80;;;1.10;;
5460;SDS011;2753;49.196;8.286;2023-08-08T13:45:18;1.53;;;1.13;;
5460;SDS011;2753;49.196;8.286;2023-08-08T13:47:45;0.90;;;0.70;;
5460;SDS011;2753;49.196;8.286;2023-08-08T13:50:13;1.63;;;0.70;;
5460;SDS011;2753;49.196;8.286;2023-08-08T13:52:39;1.73;;;0.90;;
5460;SDS011;2753;49.196;8.286;2023-08-08T13:55:06;1.67;;;1.00;;
5460;SDS011;2753;49.196;8.286;2023-08-08T13:57:32;1.00;;;0.77;;
5460;SDS011;2753;49.196;8.286;2023-08-08T13:59:58;1.77;;;0.97;;
5460;SDS011;2753;49.196;8.286;2023-08-08T14:02:24;3.23;;;0.97;;
5460;SDS011;2753;49.196;8.286;2023-08-08T14:04:49;2.03;;;0.70;;
5460;SDS011;2753;49.196;8.286;2023-08-08T14:07:15;4.53;;;0.80;;
5460;SDS011;2753;49.196;8.286;2023-08-08T14:09:41;1.83;;;0.90;;
5460;SDS011;2753;49.196;8.286;2023-08-08T14:12:07;0.90;;;0.70;;
5460;SDS011;2753;49.196;8.286;2023-08-08T14:14:33;0.67;;;0.67;;
5460;SDS011;2753;49.196;8.286;2023-08-08T14:16:58;1.53;;;0.80;;
5460;SDS011;2753;49.196;8.286;2023-08-08T14:19:24;2.33;;;1.03;;
5460;SDS011;2753;49.196;8.286;2023-08-08T14:21:50;2.93;;;0.80;;
5460;SDS011;2753;49.196;8.286;2023-08-08T14:24:15;6.30;;;1.00;;
5460;SDS011;2753;49.196;8.286;2023-08-08T14:26:41;1.13;;;1.00;;
5460;SDS011;2753;49.196;8.286;2023-08-08T14:29:07;0.93;;;0.87;;
5460;SDS011;2753;49.196;8.286;2023-08-08T14:31:33;1.27;;;0.80;;
5460;SDS011;2753;49.196;8.286;2023-08-08T14:33:58;2.57;;;0.97;;
5460;SDS011;2753;49.196;8.286;2023-08-08T14:36:24;1.63;;;0.87;;
5460;SDS011;2753;49.196;8.286;2023-08-08T14:38:50;1.43;;;0.70;;
5460;SDS011;2753;49.196;8.286;2023-08-08T14:41:15;1.27;;;0.90;;
5460;SDS011;2753;49.196;8.286;2023-08-08T14:43:41;1.37;;;0.67;;
5460;SDS011;2753;49.196;8.286;2023-08-08T14:46:07;2.47;;;0.87;;
5460;SDS011;2753;49.196;8.286;2023-08-08T14:48:32;2.43;;;0.93;;
5460;SDS011;2753;49.196;8.286;2023-08-08T14:50:59;2.60;;;1.03;;
5460;SDS011;2753;49.196;8.286;2023-08-08T14:53:26;0.90;;;0.90;;
5460;SDS011;2753;49.196;8.286;2023-08-08T14:55:52;1.10;;;1.00;;
5460;SDS011;2753;49.196;8.286;2023-08-08T14:58:18;1.47;;;0.70;;
5460;SDS011;2753;49.196;8.286;2023-08-08T15:00:43;3.70;;;0.97;;
5460;SDS011;2753;49.196;8.286;2023-08-08T15:03:09;2.83;;;1.10;;
5460;SDS011;2753;49.196;8.286;2023-08-08T15:05:35;2.63;;;1.10;;
5460;SDS011;2753;49.196;8.286;2023-08-08T15:08:01;2.67;;;1.00;;
5460;SDS011;2753;49.196;8.286;2023-08-08T15:10:28;4.33;;;0.90;;
5460;SDS011;2753;49.196;8.286;2023-08-08T15:12:53;2.27;;;1.43;;
5460;SDS011;2753;49.196;8.286;2023-08-08T15:15:19;2.10;;;1.13;;
5460;SDS011;2753;49.196;8.286;2023-08-08T15:17:48;2.10;;;0.97;;
5460;SDS011;2753;49.196;8.286;2023-08-08T15:20:14;2.30;;;0.93;;